sensor_id;sensor_type;location;lat;lon;timestamp;P1;durP1;ratioP1;P2;durP2;ratioP2
10410;SDS011;5251;52.112;8.606;2022-08-03T00:00:38;4.00;;;3.65;;
10410;SDS011;5251;52.112;8.606;2022-08-03T00:03:04;3.85;;;3.40;;
10410;SDS011;5251;52.112;8.606;2022-08-03T00:05:30;3.80;;;3.38;;
10410;SDS011;5251;52.112;8.606;2022-08-03T00:07:57;4.40;;;4.00;;
10410;SDS011;5251;52.112;8.606;2022-08-03T00:10:23;3.95;;;3.65;;
10410;SDS011;5251;52.112;8.606;2022-08-03T00:12:49;4.03;;;3.63;;
10410;SDS011;5251;52.112;8.606;2022-08-03T00:15:15;4.97;;;3.60;;
10410;SDS011;5251;52.112;8.606;2022-08-03T00:17:40;4.32;;;4.03;;
10410;SDS011;5251;52.112;8.606;2022-08-03T00:20:07;5.10;;;4.20;;
10410;SDS011;5251;52.112;8.606;2022-08-03T00:22:36;3.90;;;3.60;;
10410;SDS011;5251;52.112;8.606;2022-08-03T00:25:01;4.40;;;3.95;;
10410;SDS011;5251;52.112;8.606;2022-08-03T00:27:27;4.57;;;4.00;;
10410;SDS011;5251;52.112;8.606;2022-08-03T00:29:52;3.80;;;3.50;;
10410;SDS011;5251;52.112;8.606;2022-08-03T00:32:18;4.57;;;3.53;;
10410;SDS011;5251;52.112;8.606;2022-08-03T00:34:43;4.25;;;3.85;;
10410;SDS011;5251;52.112;8.606;2022-08-03T00:37:09;4.55;;;3.80;;
10410;SDS011;5251;52.112;8.606;2022-08-03T00:39:35;4.03;;;3.72;;
10410;SDS011;5251;52.112;8.606;2022-08-03T00:42:01;4.10;;;3.70;;
10410;SDS011;5251;52.112;8.606;2022-08-03T00:44:27;4.28;;;3.88;;
10410;SDS011;5251;52.112;8.606;2022-08-03T00:46:53;4.53;;;4.10;;
10410;SDS011;5251;52.112;8.606;2022-08-03T00:49:18;4.47;;;4.07;;
10410;SDS011;5251;52.112;8.606;2022-08-03T00:51:44;4.60;;;4.18;;
10410;SDS011;5251;52.112;8.606;2022-08-03T00:54:10;4.50;;;4.03;;
10410;SDS011;5251;52.112;8.606;2022-08-03T00:56:36;4.30;;;3.90;;
10410;SDS011;5251;52.112;8.606;2022-08-03T00:59:02;4.63;;;4.22;;
10410;SDS011;5251;52.112;8.606;2022-08-03T01:01:28;4.38;;;3.92;;
10410;SDS011;5251;52.112;8.606;2022-08-03T01:03:54;5.25;;;4.00;;
10410;SDS011;5251;52.112;8.606;2022-08-03T01:06:24;4.60;;;4.20;;
10410;SDS011;5251;52.112;8.606;2022-08-03T01:09:08;4.65;;;4.25;;
10410;SDS011;5251;52.112;8.606;2022-08-03T01:12:00;4.30;;;4.00;;
10410;SDS011;5251;52.112;8.606;2022-08-03T01:14:40;4.30;;;3.90;;
10410;SDS011;5251;52.112;8.606;2022-08-03T01:17:24;4.47;;;4.07;;
10410;SDS011;5251;52.112;8.606;2022-08-03T01:20:06;4.18;;;3.88;;
10410;SDS011;5251;52.112;8.606;2022-08-03T01:28:24;4.90;;;4.50;;
10410;SDS011;5251;52.112;8.606;2022-08-03T01:30:48;4.65;;;4.25;;
10410;SDS011;5251;52.112;8.606;2022-08-03T01:35:45;5.15;;;4.65;;
10410;SDS011;5251;52.112;8.606;2022-08-03T01:38:14;5.13;;;4.72;;
10410;SDS011;5251;52.112;8.606;2022-08-03T01:40:47;4.80;;;4.40;;
10410;SDS011;5251;52.112;8.606;2022-08-03T01:43:16;4.65;;;4.25;;
10410;SDS011;5251;52.112;8.606;2022-08-03T01:45:44;4.85;;;4.45;;
10410;SDS011;5251;52.112;8.606;2022-08-03T01:48:11;4.90;;;4.38;;
10410;SDS011;5251;52.112;8.606;2022-08-03T01:50:39;5.22;;;4.72;;
10410;SDS011;5251;52.112;8.606;2022-08-03T01:53:07;5.07;;;4.63;;
10410;SDS011;5251;52.112;8.606;2022-08-03T01:55:34;5.13;;;4.63;;
10410;SDS011;5251;52.112;8.606;2022-08-03T01:58:03;5.13;;;4.72;;
10410;SDS011;5251;52.112;8.606;2022-08-03T02:00:29;5.30;;;4.90;;
10410;SDS011;5251;52.112;8.606;2022-08-03T02:02:56;4.82;;;4.43;;
10410;SDS011;5251;52.112;8.606;2022-08-03T02:05:22;5.80;;;5.20;;
10410;SDS011;5251;52.112;8.606;2022-08-03T02:07:50;5.70;;;5.20;;
10410;SDS011;5251;52.112;8.606;2022-08-03T02:10:17;6.20;;;4.65;;
10410;SDS011;5251;52.112;8.606;2022-08-03T02:12:44;6.10;;;5.03;;
10410;SDS011;5251;52.112;8.606;2022-08-03T02:15:11;5.28;;;4.78;;
10410;SDS011;5251;52.112;8.606;2022-08-03T02:17:40;6.43;;;5.07;;
10410;SDS011;5251;52.112;8.606;2022-08-03T02:20:08;4.78;;;4.40;;
10410;SDS011;5251;52.112;8.606;2022-08-03T02:22:40;5.70;;;4.82;;
10410;SDS011;5251;52.112;8.606;2022-08-03T02:25:07;5.07;;;4.57;;
10410;SDS011;5251;52.112;8.606;2022-08-03T02:27:34;5.57;;;5.07;;
10410;SDS011;5251;52.112;8.606;2022-08-03T02:30:06;5.25;;;4.78;;
10410;SDS011;5251;52.112;8.606;2022-08-03T02:32:35;5.18;;;4.70;;
10410;SDS011;5251;52.112;8.606;2022-08-03T02:35:03;4.88;;;4.30;;
10410;SDS011;5251;52.112;8.606;2022-08-03T02:37:34;4.97;;;4.53;;
10410;SDS011;5251;52.112;8.606;2022-08-03T02:40:06;5.13;;;4.72;;
10410;SDS011;5251;52.112;8.606;2022-08-03T02:42:33;5.30;;;4.82;;
10410;SDS011;5251;52.112;8.606;2022-08-03T02:45:01;5.53;;;5.03;;
10410;SDS011;5251;52.112;8.606;2022-08-03T02:47:29;5.10;;;4.70;;
10410;SDS011;5251;52.112;8.606;2022-08-03T02:49:58;5.45;;;4.95;;
10410;SDS011;5251;52.112;8.606;2022-08-03T02:52:26;4.88;;;4.47;;
10410;SDS011;5251;52.112;8.606;2022-08-03T02:54:55;4.90;;;4.45;;
10410;SDS011;5251;52.112;8.606;2022-08-03T02:57:23;4.78;;;4.38;;
10410;SDS011;5251;52.112;8.606;2022-08-03T02:59:51;5.13;;;4.65;;
10410;SDS011;5251;52.112;8.606;2022-08-03T03:02:18;6.32;;;4.65;;
10410;SDS011;5251;52.112;8.606;2022-08-03T03:04:45;5.50;;;5.00;;
10410;SDS011;5251;52.112;8.606;2022-08-03T03:07:13;6.63;;;4.70;;
10410;SDS011;5251;52.112;8.606;2022-08-03T03:09:40;5.47;;;4.97;;
10410;SDS011;5251;52.112;8.606;2022-08-03T03:12:07;5.13;;;4.72;;
10410;SDS011;5251;52.112;8.606;2022-08-03T03:14:35;4.75;;;4.35;;
10410;SDS011;5251;52.112;8.606;2022-08-03T03:17:02;5.00;;;4.60;;
10410;SDS011;5251;52.112;8.606;2022-08-03T03:19:29;6.32;;;4.40;;
10410;SDS011;5251;52.112;8.606;2022-08-03T03:21:56;5.00;;;4.60;;
10410;SDS011;5251;52.112;8.606;2022-08-03T03:24:24;5.18;;;4.28;;
10410;SDS011;5251;52.112;8.606;2022-08-03T03:26:52;5.95;;;5.00;;
10410;SDS011;5251;52.112;8.606;2022-08-03T03:29:17;5.10;;;4.68;;
10410;SDS011;5251;52.112;8.606;2022-08-03T03:31:43;5.03;;;4.53;;
10410;SDS011;5251;52.112;8.606;2022-08-03T03:34:10;5.63;;;5.13;;
10410;SDS011;5251;52.112;8.606;2022-08-03T03:36:36;6.40;;;4.90;;
10410;SDS011;5251;52.112;8.606;2022-08-03T03:39:01;5.75;;;5.28;;
10410;SDS011;5251;52.112;8.606;2022-08-03T03:41:27;5.30;;;4.80;;
10410;SDS011;5251;52.112;8.606;2022-08-03T03:43:53;5.45;;;5.00;;
10410;SDS011;5251;52.112;8.606;2022-08-03T03:46:19;5.43;;;5.03;;
10410;SDS011;5251;52.112;8.606;2022-08-03T03:48:45;5.25;;;4.78;;
10410;SDS011;5251;52.112;8.606;2022-08-03T03:51:11;5.65;;;5.15;;
10410;SDS011;5251;52.112;8.606;2022-08-03T03:53:37;5.28;;;4.72;;
10410;SDS011;5251;52.112;8.606;2022-08-03T03:56:03;5.40;;;4.85;;
10410;SDS011;5251;52.112;8.606;2022-08-03T03:58:29;5.00;;;4.60;;
10410;SDS011;5251;52.112;8.606;2022-08-03T04:00:56;5.60;;;5.00;;
10410;SDS011;5251;52.112;8.606;2022-08-03T04:03:21;5.32;;;4.93;;
10410;SDS011;5251;52.112;8.606;2022-08-03T04:05:47;5.30;;;4.90;;
10410;SDS011;5251;52.112;8.606;2022-08-03T04:08:31;5.22;;;4.70;;
10410;SDS011;5251;52.112;8.606;2022-08-03T04:11:25;5.10;;;4.60;;
10410;SDS011;5251;52.112;8.606;2022-08-03T04:13:57;4.85;;;4.32;;
10410;SDS011;5251;52.112;8.606;2022-08-03T04:16:25;5.10;;;4.60;;
10410;SDS011;5251;52.112;8.606;2022-08-03T04:18:54;5.22;;;4.75;;
10410;SDS011;5251;52.112;8.606;2022-08-03T04:21:25;5.10;;;4.70;;
10410;SDS011;5251;52.112;8.606;2022-08-03T04:23:54;5.68;;;4.07;;
10410;SDS011;5251;52.112;8.606;2022-08-03T04:26:23;5.10;;;4.70;;
10410;SDS011;5251;52.112;8.606;2022-08-03T04:28:53;5.88;;;5.32;;
10410;SDS011;5251;52.112;8.606;2022-08-03T04:31:20;5.07;;;4.68;;
10410;SDS011;5251;52.112;8.606;2022-08-03T04:33:47;5.43;;;4.53;;
10410;SDS011;5251;52.112;8.606;2022-08-03T04:36:16;5.53;;;5.07;;
10410;SDS011;5251;52.112;8.606;2022-08-03T04:41:25;5.20;;;4.80;;
10410;SDS011;5251;52.112;8.606;2022-08-03T04:43:56;5.50;;;5.00;;
10410;SDS011;5251;52.112;8.606;2022-08-03T04:46:25;5.10;;;4.60;;
10410;SDS011;5251;52.112;8.606;2022-08-03T04:49:10;4.82;;;4.40;;
10410;SDS011;5251;52.112;8.606;2022-08-03T04:51:36;5.53;;;5.00;;
10410;SDS011;5251;52.112;8.606;2022-08-03T04:54:04;4.90;;;4.40;;
10410;SDS011;5251;52.112;8.606;2022-08-03T04:56:31;6.00;;;4.75;;
10410;SDS011;5251;52.112;8.606;2022-08-03T04:58:58;4.95;;;4.55;;
10410;SDS011;5251;52.112;8.606;2022-08-03T05:01:23;4.80;;;4.40;;
10410;SDS011;5251;52.112;8.606;2022-08-03T05:03:49;4.90;;;4.43;;
10410;SDS011;5251;52.112;8.606;2022-08-03T05:06:15;5.25;;;4.70;;
10410;SDS011;5251;52.112;8.606;2022-08-03T05:08:41;5.10;;;4.50;;
10410;SDS011;5251;52.112;8.606;2022-08-03T05:11:06;4.15;;;3.85;;
10410;SDS011;5251;52.112;8.606;2022-08-03T05:13:32;5.57;;;4.07;;
10410;SDS011;5251;52.112;8.606;2022-08-03T05:15:58;4.38;;;3.97;;
10410;SDS011;5251;52.112;8.606;2022-08-03T05:18:23;4.10;;;3.70;;
10410;SDS011;5251;52.112;8.606;2022-08-03T05:20:49;4.50;;;4.10;;
10410;SDS011;5251;52.112;8.606;2022-08-03T05:23:15;3.92;;;3.63;;
10410;SDS011;5251;52.112;8.606;2022-08-03T05:25:40;4.10;;;3.80;;
10410;SDS011;5251;52.112;8.606;2022-08-03T05:28:06;3.90;;;3.60;;
10410;SDS011;5251;52.112;8.606;2022-08-03T05:30:31;4.15;;;3.85;;
10410;SDS011;5251;52.112;8.606;2022-08-03T05:32:57;3.97;;;3.67;;
10410;SDS011;5251;52.112;8.606;2022-08-03T05:35:23;3.90;;;3.60;;
10410;SDS011;5251;52.112;8.606;2022-08-03T05:37:50;5.13;;;4.07;;
10410;SDS011;5251;52.112;8.606;2022-08-03T05:40:15;3.83;;;3.50;;
10410;SDS011;5251;52.112;8.606;2022-08-03T05:42:41;4.00;;;3.63;;
10410;SDS011;5251;52.112;8.606;2022-08-03T05:45:07;3.67;;;3.38;;
10410;SDS011;5251;52.112;8.606;2022-08-03T05:47:40;3.60;;;3.30;;
10410;SDS011;5251;52.112;8.606;2022-08-03T05:50:08;4.18;;;3.80;;
10410;SDS011;5251;52.112;8.606;2022-08-03T05:52:38;3.47;;;3.17;;
10410;SDS011;5251;52.112;8.606;2022-08-03T05:55:05;4.32;;;3.38;;
10410;SDS011;5251;52.112;8.606;2022-08-03T05:57:31;4.97;;;3.40;;
10410;SDS011;5251;52.112;8.606;2022-08-03T05:59:57;4.05;;;3.60;;
10410;SDS011;5251;52.112;8.606;2022-08-03T06:02:22;4.95;;;3.10;;
10410;SDS011;5251;52.112;8.606;2022-08-03T06:04:48;3.53;;;3.22;;
10410;SDS011;5251;52.112;8.606;2022-08-03T06:07:13;3.45;;;3.15;;
10410;SDS011;5251;52.112;8.606;2022-08-03T06:09:39;4.13;;;3.13;;
10410;SDS011;5251;52.112;8.606;2022-08-03T06:12:05;3.30;;;3.00;;
10410;SDS011;5251;52.112;8.606;2022-08-03T06:14:31;3.25;;;2.95;;
10410;SDS011;5251;52.112;8.606;2022-08-03T06:16:57;3.13;;;2.90;;
10410;SDS011;5251;52.112;8.606;2022-08-03T06:19:22;3.15;;;2.90;;
10410;SDS011;5251;52.112;8.606;2022-08-03T06:21:49;3.33;;;3.03;;
10410;SDS011;5251;52.112;8.606;2022-08-03T06:24:15;3.45;;;2.65;;
10410;SDS011;5251;52.112;8.606;2022-08-03T06:26:40;3.22;;;2.97;;
10410;SDS011;5251;52.112;8.606;2022-08-03T06:29:06;2.80;;;2.60;;
10410;SDS011;5251;52.112;8.606;2022-08-03T06:31:31;3.33;;;2.80;;
10410;SDS011;5251;52.112;8.606;2022-08-03T06:33:57;2.97;;;2.78;;
10410;SDS011;5251;52.112;8.606;2022-08-03T06:36:23;3.72;;;3.00;;
10410;SDS011;5251;52.112;8.606;2022-08-03T06:38:49;4.07;;;2.70;;
10410;SDS011;5251;52.112;8.606;2022-08-03T06:41:15;4.35;;;2.60;;
10410;SDS011;5251;52.112;8.606;2022-08-03T06:43:40;2.83;;;2.53;;
10410;SDS011;5251;52.112;8.606;2022-08-03T06:46:06;3.08;;;2.75;;
10410;SDS011;5251;52.112;8.606;2022-08-03T06:48:32;2.95;;;2.67;;
10410;SDS011;5251;52.112;8.606;2022-08-03T06:50:57;3.78;;;2.65;;
10410;SDS011;5251;52.112;8.606;2022-08-03T06:53:23;2.60;;;2.40;;
10410;SDS011;5251;52.112;8.606;2022-08-03T06:55:49;2.60;;;2.40;;
10410;SDS011;5251;52.112;8.606;2022-08-03T06:58:14;2.80;;;2.60;;
10410;SDS011;5251;52.112;8.606;2022-08-03T07:00:40;2.60;;;2.40;;
10410;SDS011;5251;52.112;8.606;2022-08-03T07:03:05;2.40;;;2.20;;
10410;SDS011;5251;52.112;8.606;2022-08-03T07:05:31;4.18;;;2.40;;
10410;SDS011;5251;52.112;8.606;2022-08-03T07:07:59;2.78;;;2.20;;
10410;SDS011;5251;52.112;8.606;2022-08-03T07:10:26;2.28;;;2.00;;
10410;SDS011;5251;52.112;8.606;2022-08-03T07:12:52;3.42;;;2.25;;
10410;SDS011;5251;52.112;8.606;2022-08-03T07:15:18;3.25;;;2.00;;
10410;SDS011;5251;52.112;8.606;2022-08-03T07:17:44;4.35;;;2.20;;
10410;SDS011;5251;52.112;8.606;2022-08-03T07:20:09;2.85;;;1.95;;
10410;SDS011;5251;52.112;8.606;2022-08-03T07:22:35;2.88;;;1.83;;
10410;SDS011;5251;52.112;8.606;2022-08-03T07:25:01;2.45;;;2.00;;
10410;SDS011;5251;52.112;8.606;2022-08-03T07:27:27;2.72;;;2.00;;
10410;SDS011;5251;52.112;8.606;2022-08-03T07:29:54;2.85;;;2.05;;
10410;SDS011;5251;52.112;8.606;2022-08-03T07:32:20;2.45;;;1.80;;
10410;SDS011;5251;52.112;8.606;2022-08-03T07:34:46;3.45;;;1.80;;
10410;SDS011;5251;52.112;8.606;2022-08-03T07:37:12;2.42;;;2.15;;
10410;SDS011;5251;52.112;8.606;2022-08-03T07:39:38;2.97;;;1.95;;
10410;SDS011;5251;52.112;8.606;2022-08-03T07:42:04;3.05;;;2.00;;
10410;SDS011;5251;52.112;8.606;2022-08-03T07:44:29;1.77;;;1.67;;
10410;SDS011;5251;52.112;8.606;2022-08-03T07:46:55;1.88;;;1.75;;
10410;SDS011;5251;52.112;8.606;2022-08-03T07:49:21;1.98;;;1.77;;
10410;SDS011;5251;52.112;8.606;2022-08-03T07:51:47;6.82;;;1.80;;
10410;SDS011;5251;52.112;8.606;2022-08-03T07:54:32;4.10;;;2.08;;
10410;SDS011;5251;52.112;8.606;2022-08-03T07:56:58;2.63;;;1.70;;
10410;SDS011;5251;52.112;8.606;2022-08-03T07:59:24;2.25;;;1.75;;
10410;SDS011;5251;52.112;8.606;2022-08-03T08:01:49;1.73;;;1.60;;
10410;SDS011;5251;52.112;8.606;2022-08-03T08:04:17;3.63;;;1.75;;
10410;SDS011;5251;52.112;8.606;2022-08-03T08:06:43;3.80;;;1.98;;
10410;SDS011;5251;52.112;8.606;2022-08-03T08:09:09;1.80;;;1.65;;
10410;SDS011;5251;52.112;8.606;2022-08-03T08:11:35;2.05;;;1.70;;
10410;SDS011;5251;52.112;8.606;2022-08-03T08:14:01;2.25;;;1.73;;
10410;SDS011;5251;52.112;8.606;2022-08-03T08:16:28;2.55;;;1.70;;
10410;SDS011;5251;52.112;8.606;2022-08-03T08:18:54;3.03;;;1.77;;
10410;SDS011;5251;52.112;8.606;2022-08-03T08:21:20;2.45;;;1.60;;
10410;SDS011;5251;52.112;8.606;2022-08-03T08:23:45;3.17;;;1.45;;
10410;SDS011;5251;52.112;8.606;2022-08-03T08:26:11;2.92;;;1.58;;
10410;SDS011;5251;52.112;8.606;2022-08-03T08:28:37;4.35;;;1.58;;
10410;SDS011;5251;52.112;8.606;2022-08-03T08:31:03;3.35;;;1.73;;
10410;SDS011;5251;52.112;8.606;2022-08-03T08:33:28;1.70;;;1.60;;
10410;SDS011;5251;52.112;8.606;2022-08-03T08:35:54;3.05;;;1.77;;
10410;SDS011;5251;52.112;8.606;2022-08-03T08:38:20;2.42;;;1.60;;
10410;SDS011;5251;52.112;8.606;2022-08-03T08:40:47;2.95;;;1.88;;
10410;SDS011;5251;52.112;8.606;2022-08-03T08:43:14;2.17;;;1.65;;
10410;SDS011;5251;52.112;8.606;2022-08-03T08:45:40;2.60;;;1.50;;
10410;SDS011;5251;52.112;8.606;2022-08-03T08:48:06;1.60;;;1.50;;
10410;SDS011;5251;52.112;8.606;2022-08-03T08:50:34;3.53;;;1.55;;
10410;SDS011;5251;52.112;8.606;2022-08-03T08:53:02;1.83;;;1.50;;
10410;SDS011;5251;52.112;8.606;2022-08-03T08:55:31;2.40;;;1.92;;
10410;SDS011;5251;52.112;8.606;2022-08-03T08:58:01;3.00;;;1.70;;
10410;SDS011;5251;52.112;8.606;2022-08-03T09:00:30;1.98;;;1.77;;
10410;SDS011;5251;52.112;8.606;2022-08-03T09:02:56;8.18;;;1.95;;
10410;SDS011;5251;52.112;8.606;2022-08-03T09:05:21;3.00;;;1.63;;
10410;SDS011;5251;52.112;8.606;2022-08-03T09:07:47;3.70;;;1.60;;
10410;SDS011;5251;52.112;8.606;2022-08-03T09:10:13;3.80;;;1.65;;
10410;SDS011;5251;52.112;8.606;2022-08-03T09:12:49;1.70;;;1.60;;
10410;SDS011;5251;52.112;8.606;2022-08-03T09:17:48;2.45;;;1.75;;
10410;SDS011;5251;52.112;8.606;2022-08-03T09:20:16;3.45;;;2.13;;
10410;SDS011;5251;52.112;8.606;2022-08-03T09:25:33;2.28;;;1.85;;
10410;SDS011;5251;52.112;8.606;2022-08-03T09:30:31;3.05;;;2.13;;
10410;SDS011;5251;52.112;8.606;2022-08-03T09:33:08;1.83;;;1.70;;
10410;SDS011;5251;52.112;8.606;2022-08-03T09:35:42;3.03;;;2.00;;
10410;SDS011;5251;52.112;8.606;2022-08-03T09:40:50;4.88;;;2.25;;
10410;SDS011;5251;52.112;8.606;2022-08-03T09:43:16;2.75;;;2.22;;
10410;SDS011;5251;52.112;8.606;2022-08-03T09:45:43;4.45;;;2.30;;
10410;SDS011;5251;52.112;8.606;2022-08-03T09:48:18;3.17;;;1.80;;
10410;SDS011;5251;52.112;8.606;2022-08-03T09:50:58;2.63;;;2.17;;
10410;SDS011;5251;52.112;8.606;2022-08-03T09:53:24;3.13;;;2.10;;
10410;SDS011;5251;52.112;8.606;2022-08-03T09:58:16;5.70;;;2.50;;
10410;SDS011;5251;52.112;8.606;2022-08-03T10:00:51;4.85;;;1.80;;
10410;SDS011;5251;52.112;8.606;2022-08-03T10:03:22;6.35;;;2.03;;
10410;SDS011;5251;52.112;8.606;2022-08-03T10:05:49;2.40;;;2.00;;
10410;SDS011;5251;52.112;8.606;2022-08-03T10:08:15;3.10;;;2.13;;
10410;SDS011;5251;52.112;8.606;2022-08-03T10:10:43;2.08;;;1.83;;
10410;SDS011;5251;52.112;8.606;2022-08-03T10:13:13;3.65;;;2.00;;
10410;SDS011;5251;52.112;8.606;2022-08-03T10:15:40;2.40;;;2.05;;
10410;SDS011;5251;52.112;8.606;2022-08-03T10:18:06;3.30;;;1.90;;
10410;SDS011;5251;52.112;8.606;2022-08-03T10:20:36;2.10;;;1.80;;
10410;SDS011;5251;52.112;8.606;2022-08-03T10:23:05;3.85;;;1.83;;
10410;SDS011;5251;52.112;8.606;2022-08-03T10:25:33;3.40;;;1.88;;
10410;SDS011;5251;52.112;8.606;2022-08-03T10:28:02;2.05;;;1.85;;
10410;SDS011;5251;52.112;8.606;2022-08-03T10:30:30;2.03;;;1.70;;
10410;SDS011;5251;52.112;8.606;2022-08-03T10:35:22;2.55;;;1.90;;
10410;SDS011;5251;52.112;8.606;2022-08-03T10:37:59;2.60;;;1.63;;
10410;SDS011;5251;52.112;8.606;2022-08-03T10:40:28;1.73;;;1.60;;
10410;SDS011;5251;52.112;8.606;2022-08-03T10:43:00;2.15;;;1.50;;
10410;SDS011;5251;52.112;8.606;2022-08-03T10:45:31;2.05;;;1.60;;
10410;SDS011;5251;52.112;8.606;2022-08-03T10:48:00;2.00;;;1.40;;
10410;SDS011;5251;52.112;8.606;2022-08-03T10:50:26;2.03;;;1.67;;
10410;SDS011;5251;52.112;8.606;2022-08-03T10:52:59;2.33;;;1.55;;
10410;SDS011;5251;52.112;8.606;2022-08-03T10:55:33;1.92;;;1.55;;
10410;SDS011;5251;52.112;8.606;2022-08-03T11:01:06;3.85;;;1.70;;
10410;SDS011;5251;52.112;8.606;2022-08-03T11:03:33;1.92;;;1.50;;
10410;SDS011;5251;52.112;8.606;2022-08-03T11:06:22;2.17;;;1.50;;
10410;SDS011;5251;52.112;8.606;2022-08-03T11:08:49;3.38;;;1.60;;
10410;SDS011;5251;52.112;8.606;2022-08-03T11:11:33;2.08;;;1.38;;
10410;SDS011;5251;52.112;8.606;2022-08-03T11:14:03;1.67;;;1.35;;
10410;SDS011;5251;52.112;8.606;2022-08-03T11:16:32;1.58;;;1.48;;
10410;SDS011;5251;52.112;8.606;2022-08-03T11:19:02;3.38;;;1.40;;
10410;SDS011;5251;52.112;8.606;2022-08-03T11:21:52;3.05;;;1.75;;
10410;SDS011;5251;52.112;8.606;2022-08-03T11:27:21;1.90;;;1.48;;
10410;SDS011;5251;52.112;8.606;2022-08-03T11:40:39;1.70;;;1.60;;
10410;SDS011;5251;52.112;8.606;2022-08-03T11:45:59;2.83;;;1.73;;
10410;SDS011;5251;52.112;8.606;2022-08-03T11:51:01;1.90;;;1.65;;
10410;SDS011;5251;52.112;8.606;2022-08-03T11:53:31;2.10;;;1.70;;
10410;SDS011;5251;52.112;8.606;2022-08-03T11:55:58;3.25;;;1.60;;
10410;SDS011;5251;52.112;8.606;2022-08-03T11:58:26;2.80;;;1.60;;
10410;SDS011;5251;52.112;8.606;2022-08-03T12:00:55;4.25;;;1.83;;
10410;SDS011;5251;52.112;8.606;2022-08-03T12:03:30;3.35;;;1.70;;
10410;SDS011;5251;52.112;8.606;2022-08-03T12:05:57;2.50;;;1.90;;
10410;SDS011;5251;52.112;8.606;2022-08-03T12:10:51;2.88;;;1.70;;
10410;SDS011;5251;52.112;8.606;2022-08-03T12:13:18;2.63;;;1.90;;
10410;SDS011;5251;52.112;8.606;2022-08-03T12:15:55;2.20;;;2.00;;
10410;SDS011;5251;52.112;8.606;2022-08-03T12:18:23;1.98;;;1.70;;
10410;SDS011;5251;52.112;8.606;2022-08-03T12:20:50;2.40;;;1.85;;
10410;SDS011;5251;52.112;8.606;2022-08-03T12:23:16;2.30;;;1.80;;
10410;SDS011;5251;52.112;8.606;2022-08-03T12:25:44;3.65;;;1.58;;
10410;SDS011;5251;52.112;8.606;2022-08-03T12:28:15;3.05;;;1.75;;
10410;SDS011;5251;52.112;8.606;2022-08-03T12:30:43;2.22;;;1.80;;
10410;SDS011;5251;52.112;8.606;2022-08-03T12:35:44;2.55;;;1.80;;
10410;SDS011;5251;52.112;8.606;2022-08-03T12:38:11;3.72;;;2.13;;
10410;SDS011;5251;52.112;8.606;2022-08-03T12:40:37;5.97;;;2.08;;
10410;SDS011;5251;52.112;8.606;2022-08-03T12:43:10;3.42;;;1.98;;
10410;SDS011;5251;52.112;8.606;2022-08-03T12:45:37;2.10;;;1.90;;
10410;SDS011;5251;52.112;8.606;2022-08-03T12:48:03;5.50;;;1.90;;
10410;SDS011;5251;52.112;8.606;2022-08-03T12:50:35;2.92;;;2.10;;
10410;SDS011;5251;52.112;8.606;2022-08-03T12:53:02;1.98;;;1.80;;
10410;SDS011;5251;52.112;8.606;2022-08-03T12:55:30;2.47;;;1.75;;
10410;SDS011;5251;52.112;8.606;2022-08-03T12:58:00;3.22;;;2.00;;
10410;SDS011;5251;52.112;8.606;2022-08-03T13:00:27;4.80;;;2.10;;
10410;SDS011;5251;52.112;8.606;2022-08-03T13:03:12;2.65;;;1.88;;
10410;SDS011;5251;52.112;8.606;2022-08-03T13:05:41;3.35;;;1.98;;
10410;SDS011;5251;52.112;8.606;2022-08-03T13:08:20;3.20;;;1.88;;
10410;SDS011;5251;52.112;8.606;2022-08-03T13:10:47;3.17;;;2.00;;
10410;SDS011;5251;52.112;8.606;2022-08-03T13:13:13;2.33;;;1.70;;
10410;SDS011;5251;52.112;8.606;2022-08-03T13:15:39;3.75;;;1.92;;
10410;SDS011;5251;52.112;8.606;2022-08-03T13:18:05;3.42;;;1.95;;
10410;SDS011;5251;52.112;8.606;2022-08-03T13:20:31;3.20;;;1.80;;
10410;SDS011;5251;52.112;8.606;2022-08-03T13:22:57;3.25;;;1.73;;
10410;SDS011;5251;52.112;8.606;2022-08-03T13:25:23;2.97;;;1.90;;
10410;SDS011;5251;52.112;8.606;2022-08-03T13:27:49;3.22;;;2.00;;
10410;SDS011;5251;52.112;8.606;2022-08-03T13:30:16;3.97;;;2.10;;
10410;SDS011;5251;52.112;8.606;2022-08-03T13:32:43;1.95;;;1.83;;
10410;SDS011;5251;52.112;8.606;2022-08-03T13:35:09;2.53;;;2.03;;
10410;SDS011;5251;52.112;8.606;2022-08-03T13:37:35;3.47;;;1.85;;
10410;SDS011;5251;52.112;8.606;2022-08-03T13:40:02;2.05;;;1.80;;
10410;SDS011;5251;52.112;8.606;2022-08-03T13:42:31;2.20;;;1.98;;
10410;SDS011;5251;52.112;8.606;2022-08-03T13:44:58;2.25;;;1.60;;
10410;SDS011;5251;52.112;8.606;2022-08-03T13:47:24;3.13;;;1.90;;
10410;SDS011;5251;52.112;8.606;2022-08-03T13:49:51;2.50;;;1.80;;
10410;SDS011;5251;52.112;8.606;2022-08-03T13:52:17;3.08;;;1.80;;
10410;SDS011;5251;52.112;8.606;2022-08-03T13:54:43;2.28;;;1.70;;
10410;SDS011;5251;52.112;8.606;2022-08-03T13:57:09;2.85;;;1.90;;
10410;SDS011;5251;52.112;8.606;2022-08-03T13:59:35;2.05;;;1.48;;
10410;SDS011;5251;52.112;8.606;2022-08-03T14:02:02;3.75;;;1.88;;
10410;SDS011;5251;52.112;8.606;2022-08-03T14:04:28;2.42;;;1.70;;
10410;SDS011;5251;52.112;8.606;2022-08-03T14:06:54;3.08;;;1.95;;
10410;SDS011;5251;52.112;8.606;2022-08-03T14:09:19;2.50;;;1.85;;
10410;SDS011;5251;52.112;8.606;2022-08-03T14:11:45;3.85;;;1.80;;
10410;SDS011;5251;52.112;8.606;2022-08-03T14:14:11;3.33;;;1.90;;
10410;SDS011;5251;52.112;8.606;2022-08-03T14:16:37;2.67;;;2.00;;
10410;SDS011;5251;52.112;8.606;2022-08-03T14:19:03;3.20;;;1.67;;
10410;SDS011;5251;52.112;8.606;2022-08-03T14:21:29;2.45;;;1.70;;
10410;SDS011;5251;52.112;8.606;2022-08-03T14:23:56;1.83;;;1.65;;
10410;SDS011;5251;52.112;8.606;2022-08-03T14:26:22;1.63;;;1.50;;
10410;SDS011;5251;52.112;8.606;2022-08-03T14:28:47;2.42;;;2.10;;
10410;SDS011;5251;52.112;8.606;2022-08-03T14:31:13;2.05;;;1.60;;
10410;SDS011;5251;52.112;8.606;2022-08-03T14:33:39;3.03;;;1.80;;
10410;SDS011;5251;52.112;8.606;2022-08-03T14:36:04;3.95;;;2.08;;
10410;SDS011;5251;52.112;8.606;2022-08-03T14:38:30;3.22;;;1.98;;
10410;SDS011;5251;52.112;8.606;2022-08-03T14:40:56;3.83;;;2.17;;
10410;SDS011;5251;52.112;8.606;2022-08-03T14:43:21;2.55;;;2.30;;
10410;SDS011;5251;52.112;8.606;2022-08-03T14:45:50;2.95;;;2.00;;
10410;SDS011;5251;52.112;8.606;2022-08-03T14:48:20;3.45;;;2.03;;
10410;SDS011;5251;52.112;8.606;2022-08-03T14:50:46;3.55;;;1.83;;
10410;SDS011;5251;52.112;8.606;2022-08-03T14:53:12;2.05;;;1.60;;
10410;SDS011;5251;52.112;8.606;2022-08-03T14:55:38;3.25;;;2.70;;
10410;SDS011;5251;52.112;8.606;2022-08-03T14:58:04;4.75;;;2.17;;
10410;SDS011;5251;52.112;8.606;2022-08-03T15:00:31;2.20;;;1.90;;
10410;SDS011;5251;52.112;8.606;2022-08-03T15:02:57;8.65;;;2.95;;
10410;SDS011;5251;52.112;8.606;2022-08-03T15:05:22;2.83;;;2.15;;
10410;SDS011;5251;52.112;8.606;2022-08-03T15:07:48;2.05;;;1.60;;
10410;SDS011;5251;52.112;8.606;2022-08-03T15:10:14;3.72;;;1.70;;
10410;SDS011;5251;52.112;8.606;2022-08-03T15:12:39;2.55;;;1.67;;
10410;SDS011;5251;52.112;8.606;2022-08-03T15:15:05;2.67;;;1.95;;
10410;SDS011;5251;52.112;8.606;2022-08-03T15:17:31;1.75;;;1.65;;
10410;SDS011;5251;52.112;8.606;2022-08-03T15:19:56;1.80;;;1.50;;
10410;SDS011;5251;52.112;8.606;2022-08-03T15:22:22;4.68;;;2.08;;
10410;SDS011;5251;52.112;8.606;2022-08-03T15:24:48;3.47;;;1.83;;
10410;SDS011;5251;52.112;8.606;2022-08-03T15:27:14;3.10;;;2.03;;
10410;SDS011;5251;52.112;8.606;2022-08-03T15:29:39;2.47;;;1.90;;
10410;SDS011;5251;52.112;8.606;2022-08-03T15:32:05;2.47;;;1.92;;
10410;SDS011;5251;52.112;8.606;2022-08-03T15:34:30;4.03;;;2.25;;
10410;SDS011;5251;52.112;8.606;2022-08-03T15:36:56;4.82;;;1.80;;
10410;SDS011;5251;52.112;8.606;2022-08-03T15:39:22;3.13;;;2.22;;
10410;SDS011;5251;52.112;8.606;2022-08-03T15:41:47;4.10;;;2.00;;
10410;SDS011;5251;52.112;8.606;2022-08-03T15:44:13;2.50;;;1.80;;
10410;SDS011;5251;52.112;8.606;2022-08-03T15:46:43;3.22;;;1.83;;
10410;SDS011;5251;52.112;8.606;2022-08-03T15:49:09;3.13;;;2.17;;
10410;SDS011;5251;52.112;8.606;2022-08-03T15:51:34;5.00;;;2.10;;
10410;SDS011;5251;52.112;8.606;2022-08-03T15:54:02;2.85;;;1.88;;
10410;SDS011;5251;52.112;8.606;2022-08-03T15:56:28;3.30;;;1.92;;